Lookout, Kentucky
Current Conditions -  °F | °C
As of 4:35 PM on Saturday 22 Nov 2014 (Local Time) from KPBX Reporting Station
Clear Clear  
Wind Chill: 57°   Ceiling: Unl
Heat Index: 57°   Visibility: 10mi
Dew Point: 22°   Wind: 8mph
Humidity: 26%   Direction: 190°S
Pressure: 30.21"   Gusts: NA
Location:  37.31°N, 82.47°W
Report Text: KPBX 222135Z AUTO 19007KT 160V220 10SM CLR 14/M06 A3021 RMK AO2 T01391057
Loading
Personal Weather Stations






























Interactive Weather Map New forecast layout! Learn more

10-Day Weather Forecast

Advertisements
Track Severe Weather on mobile